Time;durP1;ratioP1;P1;durP2;ratioP2;P2;SDS_P1;SDS_P2;PMS_P1;PMS_P2;Temp;Humidity;BMP_temperature;BMP_pressure;BME280_temperature;BME280_humidity;BME280_pressure;Samples;Min_cycle;Max_cycle;Signal;HPM_P1;HPM_P2
2023/08/22 00:01:45;;;;;;;6.90;4.28;;;;;;;17.60;100.00;101907.28;4987373;28;20026;-67
2023/08/22 00:04:10;;;;;;;4.28;3.78;;;;;;;17.59;100.00;101901.16;4987505;28;20760;-66
2023/08/22 00:06:35;;;;;;;7.97;4.35;;;;;;;17.57;100.00;101891.50;4987902;28;20033;-67
2023/08/22 00:09:03;;;;;;;6.78;4.20;;;;;;;17.55;100.00;101899.34;4987580;28;20022;-66
2023/08/22 00:11:28;;;;;;;6.68;4.45;;;;;;;17.56;100.00;101895.00;4987542;28;20453;-66
2023/08/22 00:13:54;;;;;;;5.85;3.80;;;;;;;17.56;100.00;101906.34;4986875;28;20019;-66
2023/08/22 00:16:20;;;;;;;5.03;3.40;;;;;;;17.57;100.00;101902.88;4989861;28;20038;-66
2023/08/22 00:18:45;;;;;;;6.55;4.07;;;;;;;17.58;100.00;101893.25;4990463;28;20031;-66
2023/08/22 00:21:10;;;;;;;5.30;4.13;;;;;;;17.56;100.00;101900.25;4991096;28;20073;-66
2023/08/22 00:23:36;;;;;;;5.78;3.90;;;;;;;17.55;100.00;101893.22;4990815;28;20105;-66
2023/08/22 00:26:01;;;;;;;6.15;3.88;;;;;;;17.54;100.00;101894.06;4990955;28;20026;-67
2023/08/22 00:28:26;;;;;;;5.95;4.07;;;;;;;17.55;100.00;101895.84;4991032;28;20022;-67
2023/08/22 00:30:53;;;;;;;6.28;3.80;;;;;;;17.56;100.00;101900.25;4990674;28;20023;-64
2023/08/22 00:33:18;;;;;;;5.32;4.00;;;;;;;17.56;100.00;101895.00;4991133;28;20433;-67
2023/08/22 00:35:43;;;;;;;4.63;3.72;;;;;;;17.55;100.00;101898.44;4990677;28;20026;-67
2023/08/22 00:38:09;;;;;;;6.18;4.57;;;;;;;17.52;100.00;101894.91;4990723;28;20096;-66
2023/08/22 00:40:34;;;;;;;4.43;3.97;;;;;;;17.49;100.00;101887.00;4990474;28;20037;-66
2023/08/22 00:42:59;;;;;;;5.53;3.40;;;;;;;17.47;100.00;101886.06;4990327;28;20038;-67
2023/08/22 00:45:25;;;;;;;5.97;4.03;;;;;;;17.47;100.00;101880.84;4990612;28;20033;-67
2023/08/22 00:47:51;;;;;;;5.95;4.32;;;;;;;17.47;100.00;101879.94;4990441;28;20045;-67
2023/08/22 00:50:16;;;;;;;3.92;3.40;;;;;;;17.50;100.00;101891.38;4990659;28;20076;-66
2023/08/22 00:52:42;;;;;;;5.65;4.25;;;;;;;17.53;100.00;101885.31;4990337;28;20481;-66
2023/08/22 00:55:08;;;;;;;4.18;3.25;;;;;;;17.52;100.00;101880.94;4990784;28;20050;-67
2023/08/22 00:57:33;;;;;;;5.25;3.70;;;;;;;17.51;100.00;101872.19;4990076;28;20015;-67
2023/08/22 01:00:02;;;;;;;4.70;3.28;;;;;;;17.52;100.00;101876.56;4990463;28;20053;-67
2023/08/22 01:02:27;;;;;;;7.15;4.00;;;;;;;17.51;100.00;101877.44;4990049;28;20023;-67
2023/08/22 01:04:52;;;;;;;3.70;3.28;;;;;;;17.52;100.00;101873.94;4989786;28;20496;-66
2023/08/22 01:07:25;;;;;;;8.45;4.00;;;;;;;17.50;100.00;101867.78;4990234;28;20026;-67
2023/08/22 01:10:02;;;;;;;6.20;3.75;;;;;;;17.50;100.00;101865.16;4990383;28;20042;-67
2023/08/22 01:12:42;;;;;;;7.07;4.03;;;;;;;17.51;100.00;101866.06;4977467;28;20054;-65
2023/08/22 01:15:18;;;;;;;5.65;4.70;;;;;;;17.49;100.00;101867.75;4989293;28;20046;-66
2023/08/22 01:17:43;;;;;;;5.43;4.05;;;;;;;17.46;100.00;101868.59;4989882;28;20034;-67
2023/08/22 01:20:12;;;;;;;6.82;4.80;;;;;;;17.43;100.00;101876.38;4989531;28;20032;-67
2023/08/22 01:22:41;;;;;;;6.00;4.65;;;;;;;17.40;100.00;101878.94;4990038;28;20398;-67
2023/08/22 01:25:08;;;;;;;6.20;4.72;;;;;;;17.33;100.00;101877.06;4990191;28;20034;-66
2023/08/22 01:27:43;;;;;;;5.50;4.93;;;;;;;17.28;100.00;101874.34;4989580;28;20077;-67
2023/08/22 01:30:18;;;;;;;5.85;5.35;;;;;;;17.21;100.00;101862.88;4989565;28;20044;-66
2023/08/22 01:32:49;;;;;;;7.70;5.18;;;;;;;17.20;100.00;101861.09;4989451;28;20070;-67
2023/08/22 01:35:16;;;;;;;7.70;5.40;;;;;;;17.17;100.00;101858.41;4989761;28;20385;-67
2023/08/22 01:37:43;;;;;;;8.10;6.30;;;;;;;17.14;100.00;101860.97;4989272;28;20161;-66
2023/08/22 01:40:10;;;;;;;6.53;5.60;;;;;;;17.11;100.00;101860.88;4989287;28;20128;-66
2023/08/22 01:42:35;;;;;;;10.15;6.38;;;;;;;17.08;100.00;101856.47;4988721;28;20062;-66
2023/08/22 01:45:00;;;;;;;7.55;6.63;;;;;;;17.08;100.00;101861.69;4989814;28;20050;-66
2023/08/22 01:47:26;;;;;;;7.97;6.20;;;;;;;17.09;100.00;101858.22;4989095;28;20033;-66
2023/08/22 01:49:51;;;;;;;11.48;6.18;;;;;;;17.12;100.00;101862.69;4989392;28;20503;-66
2023/08/22 01:52:16;;;;;;;9.73;5.55;;;;;;;17.13;100.00;101861.81;4988942;28;20080;-66
2023/08/22 01:54:43;;;;;;;9.55;6.70;;;;;;;17.12;100.00;101867.91;4989522;28;20026;-63
2023/08/22 01:57:08;;;;;;;10.48;6.85;;;;;;;17.09;100.00;101858.22;4988717;28;20032;-66
2023/08/22 01:59:33;;;;;;;14.32;7.25;;;;;;;17.09;100.00;101858.22;4989556;28;20469;-64
2023/08/22 02:01:59;;;;;;;13.95;7.22;;;;;;;17.06;100.00;101863.41;4989688;28;20286;-64
2023/08/22 02:04:24;;;;;;;11.05;6.53;;;;;;;17.04;100.00;101860.75;4989344;28;20044;-64
2023/08/22 02:06:49;;;;;;;12.65;6.63;;;;;;;17.02;100.00;101857.22;4989050;28;20452;-66
2023/08/22 02:09:14;;;;;;;11.40;6.53;;;;;;;17.02;100.00;101857.22;4989740;28;20493;-66
2023/08/22 02:11:40;;;;;;;9.98;6.43;;;;;;;17.02;100.00;101856.31;4988916;28;20029;-67
2023/08/22 02:14:05;;;;;;;9.85;6.38;;;;;;;16.99;100.00;101857.16;4988664;28;20101;-66
2023/08/22 02:16:31;;;;;;;10.18;6.15;;;;;;;16.97;100.00;101848.38;4988863;28;20030;-66
2023/08/22 02:18:56;;;;;;;11.07;6.32;;;;;;;16.95;100.00;101855.31;4989006;28;20502;-66
2023/08/22 02:21:21;;;;;;;8.65;7.13;;;;;;;16.93;100.00;101850.03;4989324;28;20029;-67
2023/08/22 02:23:46;;;;;;;11.93;6.82;;;;;;;16.93;100.00;101842.19;4988716;28;20062;-67
2023/08/22 02:26:12;;;;;;;9.80;6.88;;;;;;;16.95;100.00;101841.31;4988577;28;20478;-67
2023/08/22 02:28:37;;;;;;;14.90;7.05;;;;;;;16.93;100.00;101842.19;4988832;28;20031;-66
2023/08/22 02:31:02;;;;;;;9.90;6.68;;;;;;;16.93;100.00;101836.06;4988393;28;20414;-67
2023/08/22 02:33:28;;;;;;;8.40;5.95;;;;;;;16.92;100.00;101836.91;4988712;28;20160;-67
2023/08/22 02:35:54;;;;;;;10.82;6.57;;;;;;;16.92;100.00;101839.53;4988917;28;20113;-65
2023/08/22 02:38:19;;;;;;;7.72;5.95;;;;;;;16.90;100.00;101836.91;4987208;28;20470;-66
2023/08/22 02:40:45;;;;;;;9.02;5.93;;;;;;;16.90;100.00;101830.75;4989005;28;20169;-65
2023/08/22 02:43:10;;;;;;;10.90;6.25;;;;;;;16.90;100.00;101836.00;4987838;28;20109;-67
2023/08/22 02:45:36;;;;;;;7.35;6.13;;;;;;;16.89;100.00;101832.50;4988729;28;20034;-67
2023/08/22 02:48:01;;;;;;;6.72;6.00;;;;;;;16.88;100.00;101835.09;4988622;28;20113;-66
2023/08/22 02:50:26;;;;;;;8.07;5.88;;;;;;;16.88;100.00;101832.47;4988287;28;20041;-66
2023/08/22 02:52:51;;;;;;;7.10;5.88;;;;;;;16.87;100.00;101828.09;4988499;28;20030;-67
2023/08/22 02:55:17;;;;;;;7.10;6.30;;;;;;;16.88;100.00;101837.69;4989157;28;20028;-67
2023/08/22 02:57:43;;;;;;;8.85;5.93;;;;;;;16.87;100.00;101836.84;4987970;28;20363;-66
2023/08/22 03:00:11;;;;;;;7.75;6.13;;;;;;;16.87;100.00;101838.56;4988851;28;20026;-67
2023/08/22 03:02:36;;;;;;;8.77;6.55;;;;;;;16.87;100.00;101838.56;4988509;28;20022;-66
2023/08/22 03:05:04;;;;;;;7.95;6.18;;;;;;;16.85;100.00;101837.63;4988953;28;20085;-67
2023/08/22 03:07:29;;;;;;;8.05;6.57;;;;;;;16.86;100.00;101834.16;4988083;28;20026;-67
2023/08/22 03:09:55;;;;;;;10.10;6.40;;;;;;;16.85;100.00;101829.78;4988623;28;20034;-66
2023/08/22 03:12:20;;;;;;;9.50;6.43;;;;;;;16.82;100.00;101837.59;4988738;28;20074;-66
2023/08/22 03:14:45;;;;;;;8.23;6.43;;;;;;;16.80;100.00;101841.03;4988685;28;20429;-66
2023/08/22 03:17:11;;;;;;;8.02;6.72;;;;;;;16.78;100.00;101840.09;4989109;28;20038;-67
2023/08/22 03:19:37;;;;;;;7.90;6.25;;;;;;;16.78;100.00;101832.25;4988510;28;20453;-67
2023/08/22 03:22:02;;;;;;;9.05;7.45;;;;;;;16.77;100.00;101840.97;4988663;28;20050;-67
2023/08/22 03:24:27;;;;;;;10.07;7.30;;;;;;;16.75;100.00;101831.31;4988371;28;20125;-67
2023/08/22 03:26:53;;;;;;;8.23;6.90;;;;;;;16.74;100.00;101833.06;4989248;28;20025;-67
2023/08/22 03:29:18;;;;;;;14.43;7.93;;;;;;;16.74;100.00;101826.94;4988717;28;20023;-67
2023/08/22 03:31:43;;;;;;;9.73;7.70;;;;;;;16.73;100.00;101827.78;4988084;28;20097;-67
2023/08/22 03:34:08;;;;;;;10.27;7.93;;;;;;;16.70;100.00;101825.97;4988936;28;20097;-67
2023/08/22 03:36:34;;;;;;;9.18;7.82;;;;;;;16.67;100.00;101833.78;4988339;28;20018;-67
2023/08/22 03:38:59;;;;;;;10.48;7.60;;;;;;;16.64;100.00;101831.09;4988576;28;20210;-67
2023/08/22 03:41:24;;;;;;;12.25;7.45;;;;;;;16.61;100.00;101828.38;4987988;28;20476;-66
2023/08/22 03:43:50;;;;;;;11.85;7.38;;;;;;;16.59;100.00;101830.06;4988664;28;20030;-67
2023/08/22 03:46:15;;;;;;;9.32;7.25;;;;;;;16.55;100.00;101830.00;4989138;28;20030;-67
2023/08/22 03:48:40;;;;;;;7.10;6.18;;;;;;;16.51;100.00;101828.19;4988343;28;20499;-67
2023/08/22 03:51:06;;;;;;;9.63;7.07;;;;;;;16.51;100.00;101822.06;4992214;28;20022;-67
2023/08/22 03:53:33;;;;;;;7.25;6.50;;;;;;;16.51;100.00;101830.81;4992381;28;20113;-67
2023/08/22 03:55:59;;;;;;;8.32;6.45;;;;;;;16.51;100.00;101822.97;4992380;28;20474;-67
2023/08/22 03:58:24;;;;;;;9.60;6.65;;;;;;;16.48;100.00;101822.88;4992067;28;20032;-66
2023/08/22 04:00:49;;;;;;;10.43;6.95;;;;;;;16.45;100.00;101822.81;4991967;28;20474;-67
2023/08/22 04:03:14;;;;;;;10.60;6.75;;;;;;;16.43;100.00;101824.50;4991814;28;20548;-66
2023/08/22 04:05:43;;;;;;;8.32;6.80;;;;;;;16.40;100.00;101829.66;4992246;28;20085;-65
2023/08/22 04:08:08;;;;;;;8.95;6.43;;;;;;;16.38;100.00;101826.13;4992015;28;20042;-66
2023/08/22 04:10:33;;;;;;;10.45;7.38;;;;;;;16.34;100.00;101830.41;4992019;28;20426;-66
2023/08/22 04:12:58;;;;;;;8.30;6.53;;;;;;;16.31;100.00;101828.63;4991131;28;20030;-66
2023/08/22 04:15:24;;;;;;;7.35;6.65;;;;;;;16.30;100.00;101824.22;4991544;28;20040;-65
2023/08/22 04:17:50;;;;;;;11.05;6.90;;;;;;;16.27;100.00;101824.16;4991849;28;20054;-66
2023/08/22 04:20:15;;;;;;;8.02;7.20;;;;;;;16.25;100.00;101820.59;4992174;28;20378;-67
2023/08/22 04:22:41;;;;;;;12.70;6.68;;;;;;;16.22;100.00;101815.31;4991275;28;20495;-64
2023/08/22 04:25:07;;;;;;;9.02;6.68;;;;;;;16.20;100.00;101822.22;4990502;28;20059;-65
2023/08/22 04:27:32;;;;;;;9.63;7.15;;;;;;;16.18;100.00;101810.84;4989920;28;20109;-66
2023/08/22 04:29:59;;;;;;;10.90;7.45;;;;;;;16.15;100.00;101818.63;4989935;28;20050;-64
2023/08/22 04:32:24;;;;;;;10.85;6.40;;;;;;;16.12;100.00;101813.34;4989366;28;20366;-66
2023/08/22 04:34:49;;;;;;;8.60;6.70;;;;;;;16.11;100.00;101816.78;4988763;28;20018;-67
2023/08/22 04:37:15;;;;;;;8.93;6.53;;;;;;;16.07;100.00;101816.69;4979572;28;20109;-67
2023/08/22 04:39:40;;;;;;;8.57;6.38;;;;;;;16.05;100.00;101823.63;4986693;28;20081;-67
2023/08/22 04:42:05;;;;;;;9.77;6.38;;;;;;;16.01;100.00;101816.53;4990559;28;20018;-66
2023/08/22 04:44:31;;;;;;;7.68;6.13;;;;;;;16.02;100.00;101812.19;4991385;28;20022;-66
2023/08/22 04:46:56;;;;;;;8.57;7.25;;;;;;;15.99;100.00;101823.44;4992002;28;20481;-67
2023/08/22 04:49:21;;;;;;;7.60;6.60;;;;;;;15.97;100.00;101819.91;4990823;28;20032;-67
2023/08/22 04:51:47;;;;;;;11.40;6.82;;;;;;;15.98;100.00;101826.88;4991613;28;20023;-66
2023/08/22 04:54:12;;;;;;;9.55;6.22;;;;;;;15.97;100.00;101822.53;4991115;28;20023;-67
2023/08/22 04:56:37;;;;;;;7.00;6.22;;;;;;;15.95;100.00;101817.25;4991583;28;20464;-66
2023/08/22 04:59:02;;;;;;;6.82;6.13;;;;;;;15.95;100.00;101822.50;4990749;28;20045;-66
2023/08/22 05:01:28;;;;;;;8.63;5.97;;;;;;;15.95;100.00;101819.88;4990706;28;20257;-63
2023/08/22 05:03:53;;;;;;;7.70;6.53;;;;;;;15.96;100.00;101828.56;4991586;28;20026;-66
2023/08/22 05:06:18;;;;;;;6.95;6.07;;;;;;;15.97;100.00;101818.16;4990541;28;20029;-66
2023/08/22 05:08:43;;;;;;;6.45;5.82;;;;;;;15.97;100.00;101825.13;4987878;28;20030;-67
2023/08/22 05:11:09;;;;;;;8.38;6.18;;;;;;;15.95;100.00;101827.72;4983271;28;20026;-67
2023/08/22 05:13:34;;;;;;;9.20;6.50;;;;;;;15.96;100.00;101831.19;4986211;28;20061;-67
2023/08/22 05:15:59;;;;;;;7.40;6.70;;;;;;;15.95;100.00;101817.25;4980413;28;20038;-65
2023/08/22 05:18:25;;;;;;;8.25;6.55;;;;;;;15.97;100.00;101827.75;4987741;28;20306;-67
2023/08/22 05:20:53;;;;;;;8.13;7.07;;;;;;;16.01;100.00;101820.91;4988004;28;20478;-65
2023/08/22 05:23:19;;;;;;;7.03;6.05;;;;;;;16.05;100.00;101821.00;4987804;28;20042;-66
2023/08/22 05:25:44;;;;;;;10.27;5.72;;;;;;;16.09;100.00;101827.19;4974785;28;20394;-65
2023/08/22 05:28:09;;;;;;;7.85;6.40;;;;;;;16.14;100.00;101822.06;4986593;28;20034;-65
2023/08/22 05:30:38;;;;;;;10.35;6.47;;;;;;;16.16;100.00;101823.00;4988180;28;20494;-66
2023/08/22 05:33:04;;;;;;;7.15;6.40;;;;;;;16.19;100.00;101816.09;4987672;28;20514;-66
2023/08/22 05:35:29;;;;;;;8.85;6.80;;;;;;;16.24;100.00;101818.84;4989827;28;20026;-67
2023/08/22 05:37:54;;;;;;;8.02;6.90;;;;;;;16.29;100.00;101821.56;4977561;28;20049;-67
2023/08/22 05:40:20;;;;;;;11.25;7.78;;;;;;;16.32;100.00;101822.53;4990914;28;20321;-65
2023/08/22 05:42:45;;;;;;;10.73;8.02;;;;;;;16.38;100.00;101820.91;4990259;28;20057;-62
2023/08/22 05:45:10;;;;;;;8.90;8.02;;;;;;;16.44;100.00;101815.81;4990310;28;20145;-64
2023/08/22 05:47:36;;;;;;;13.05;9.60;;;;;;;16.50;100.00;101821.19;4990385;28;20112;-68
2023/08/22 05:50:03;;;;;;;12.13;10.40;;;;;;;16.56;100.00;101826.56;4990517;28;20037;-71
2023/08/22 05:52:28;;;;;;;12.43;10.02;;;;;;;16.64;100.00;101823.25;4990008;28;20025;-70
2023/08/22 05:54:54;;;;;;;12.52;10.13;;;;;;;16.68;100.00;101825.94;4990012;28;20377;-69
2023/08/22 05:57:19;;;;;;;13.65;10.30;;;;;;;16.76;100.00;101839.22;4989940;28;20029;-68
2023/08/22 05:59:44;;;;;;;11.15;10.05;;;;;;;16.85;100.00;101838.53;4989563;28;20023;-68
2023/08/22 06:02:10;;;;;;;11.05;9.65;;;;;;;16.93;100.00;101831.72;4989631;28;20482;-68
2023/08/22 06:04:35;;;;;;;12.68;9.75;;;;;;;17.02;100.00;101827.50;4990236;28;20058;-68
2023/08/22 06:07:01;;;;;;;14.38;11.38;;;;;;;17.11;100.00;101834.72;4989897;28;20354;-67
2023/08/22 06:09:26;;;;;;;14.88;11.95;;;;;;;17.20;100.00;101839.28;4989874;28;20038;-67
2023/08/22 06:11:51;;;;;;;12.90;11.52;;;;;;;17.30;100.00;101848.19;4989131;28;20488;-67
2023/08/22 06:14:16;;;;;;;12.88;11.38;;;;;;;17.40;100.00;101848.41;4988616;28;20110;-67
2023/08/22 06:16:42;;;;;;;12.30;10.30;;;;;;;17.52;100.00;101847.75;4987921;28;20356;-67
2023/08/22 06:19:07;;;;;;;12.60;10.25;;;;;;;17.67;100.00;101848.00;4988461;28;20046;-68
2023/08/22 06:21:33;;;;;;;10.90;8.75;;;;;;;17.84;100.00;101858.81;4987888;28;20105;-64
2023/08/22 06:23:58;;;;;;;11.00;9.38;;;;;;;17.98;100.00;101857.31;4987728;28;20022;-67
2023/08/22 06:26:23;;;;;;;12.93;10.80;;;;;;;18.11;100.00;101853.13;4987812;28;20097;-68
2023/08/22 06:28:50;;;;;;;10.60;9.60;;;;;;;18.25;100.00;101857.78;4989334;28;20125;-68
2023/08/22 06:31:15;;;;;;;12.52;10.73;;;;;;;18.34;100.00;101857.94;4988644;28;20480;-67
2023/08/22 06:33:40;;;;;;;13.73;10.52;;;;;;;18.45;100.00;101858.09;4989720;28;20062;-68
2023/08/22 06:36:06;;;;;;;13.20;10.35;;;;;;;18.56;100.00;101854.75;4987861;28;20529;-68
2023/08/22 06:38:31;;;;;;;11.88;9.98;;;;;;;18.67;100.00;101860.16;4977727;28;20251;-68
2023/08/22 06:40:56;;;;;;;10.45;8.93;;;;;;;18.77;100.00;101853.28;4988299;28;20525;-68
2023/08/22 06:43:22;;;;;;;10.45;8.90;;;;;;;18.93;100.00;101852.63;4989796;28;20109;-68
2023/08/22 06:45:47;;;;;;;9.35;8.15;;;;;;;19.07;100.00;101849.28;4989082;28;20466;-68
2023/08/22 06:48:13;;;;;;;9.40;7.85;;;;;;;19.23;100.00;101853.00;4989539;28;20286;-68
2023/08/22 06:50:38;;;;;;;10.82;8.55;;;;;;;19.34;100.00;101855.78;4988298;28;20105;-68
2023/08/22 06:53:03;;;;;;;7.88;7.07;;;;;;;19.50;100.00;101859.44;4971388;28;20045;-68
2023/08/22 06:55:29;;;;;;;8.13;6.63;;;;;;;19.67;100.00;101872.78;4988769;28;20081;-68
2023/08/22 06:57:54;;;;;;;7.10;6.05;;;;;;;19.86;100.00;101875.59;4988468;28;20658;-68
2023/08/22 07:00:19;;;;;;;8.15;5.90;;;;;;;20.03;100.00;101877.50;4988464;28;20080;-67
2023/08/22 07:02:46;;;;;;;10.82;6.40;;;;;;;20.21;100.00;101881.19;4988397;28;20015;-68
2023/08/22 07:05:13;;;;;;;9.80;6.07;;;;;;;20.40;100.00;101888.34;4988763;28;20038;-69
2023/08/22 07:07:39;;;;;;;8.73;5.65;;;;;;;20.60;100.00;101884.97;4988317;28;20014;-68
2023/08/22 07:10:05;;;;;;;8.88;6.90;;;;;;;20.81;100.00;101887.75;4988265;28;20062;-68
2023/08/22 07:12:31;;;;;;;8.98;7.30;;;;;;;20.94;100.00;101881.69;4988133;28;20390;-66
2023/08/22 07:14:56;;;;;;;7.97;6.05;;;;;;;21.12;100.00;101887.91;4988222;28;20051;-68
2023/08/22 07:17:21;;;;;;;7.57;6.43;;;;;;;21.32;100.00;101890.63;4988281;28;20038;-68
2023/08/22 07:19:47;;;;;;;9.63;6.78;;;;;;;21.50;100.00;101894.19;4988570;28;20762;-67
2023/08/22 07:22:12;;;;;;;9.05;5.57;;;;;;;21.71;100.00;101906.56;4976370;28;20155;-68
2023/08/22 07:24:37;;;;;;;9.95;6.28;;;;;;;21.95;100.00;101902.22;4987861;28;20037;-68
2023/08/22 07:27:03;;;;;;;6.72;6.10;;;;;;;22.21;100.00;101902.25;4988443;28;20026;-65
2023/08/22 07:29:28;;;;;;;9.05;5.75;;;;;;;22.38;100.00;101899.63;4988175;28;20466;-66
2023/08/22 07:31:58;;;;;;;8.77;5.38;;;;;;;22.54;100.00;101903.97;4987245;28;20093;-67
2023/08/22 07:34:23;;;;;;;10.82;4.35;;;;;;;22.84;100.00;101898.69;4987881;28;20033;-67
2023/08/22 07:36:49;;;;;;;4.05;3.10;;;;;;;23.13;100.00;101896.81;4970820;28;20046;-67
2023/08/22 07:39:15;;;;;;;5.93;3.90;;;;;;;23.24;92.78;101902.91;4987906;28;20545;-66
2023/08/22 07:41:40;;;;;;;5.88;3.08;;;;;;;23.39;91.35;101891.41;4988267;28;20370;-67
2023/08/22 07:44:05;;;;;;;4.68;2.85;;;;;;;23.69;91.61;101900.97;4987653;28;20030;-68
2023/08/22 07:46:32;;;;;;;4.82;2.60;;;;;;;23.96;87.67;101901.66;4988129;28;20026;-67
2023/08/22 07:48:57;;;;;;;6.13;2.92;;;;;;;24.22;86.21;101901.47;4987842;28;20195;-68
2023/08/22 07:51:22;;;;;;;3.47;2.55;;;;;;;24.41;84.51;101906.56;4988041;28;20438;-68
2023/08/22 07:53:48;;;;;;;3.92;2.72;;;;;;;24.46;82.57;101896.84;4988086;28;20026;-67
2023/08/22 07:56:13;;;;;;;4.47;3.70;;;;;;;24.47;81.37;101903.00;4987130;28;20026;-68
2023/08/22 07:58:38;;;;;;;8.07;4.00;;;;;;;24.39;80.77;101902.22;4987726;28;20053;-68
2023/08/22 08:01:04;;;;;;;6.20;3.90;;;;;;;24.23;82.49;101905.88;4987854;28;20058;-66
2023/08/22 08:03:30;;;;;;;5.53;3.78;;;;;;;24.04;82.25;101901.56;4987880;28;20033;-68
2023/08/22 08:05:55;;;;;;;9.48;4.18;;;;;;;23.85;83.51;101905.25;4988093;28;20030;-67
2023/08/22 08:08:20;;;;;;;7.63;4.60;;;;;;;23.69;85.86;101909.75;4987930;28;20495;-68
2023/08/22 08:10:46;;;;;;;8.48;4.05;;;;;;;23.53;86.78;101908.13;4987417;28;20072;-65
2023/08/22 08:13:12;;;;;;;7.45;4.40;;;;;;;23.41;89.99;101911.66;4987957;28;20022;-69
2023/08/22 08:15:38;;;;;;;8.63;4.50;;;;;;;23.26;88.46;101906.44;4986873;28;20058;-67
2023/08/22 08:18:03;;;;;;;7.40;5.20;;;;;;;23.22;88.61;101917.03;4988269;28;20168;-69
2023/08/22 08:20:29;;;;;;;9.75;4.22;;;;;;;23.18;90.84;101912.63;4987386;28;20366;-68
2023/08/22 08:22:55;;;;;;;6.95;4.88;;;;;;;23.16;92.72;101920.59;4987537;28;20035;-68
2023/08/22 08:25:20;;;;;;;10.40;5.53;;;;;;;23.10;91.13;101923.22;4987488;28;20026;-69
2023/08/22 08:27:45;;;;;;;7.95;4.82;;;;;;;23.00;94.28;101915.34;4988082;28;20027;-68
2023/08/22 08:30:10;;;;;;;8.93;4.70;;;;;;;22.97;97.18;101914.50;4988197;28;20035;-65
2023/08/22 08:32:36;;;;;;;11.23;5.13;;;;;;;22.88;93.29;101915.41;4988367;28;20069;-68
2023/08/22 08:35:01;;;;;;;7.38;5.18;;;;;;;22.86;94.24;101925.97;4988350;28;20529;-68
2023/08/22 08:37:28;;;;;;;11.13;5.32;;;;;;;22.81;96.95;101926.88;4978844;28;20034;-69
2023/08/22 08:39:53;;;;;;;6.47;5.03;;;;;;;22.83;95.79;101928.59;4991344;28;20034;-68
2023/08/22 08:42:18;;;;;;;7.47;6.00;;;;;;;22.85;95.88;101920.66;4991494;28;20014;-68
2023/08/22 08:44:44;;;;;;;6.72;5.20;;;;;;;22.87;96.08;101919.78;4991702;28;20040;-67
2023/08/22 08:47:10;;;;;;;9.40;5.00;;;;;;;22.90;96.46;101914.50;4992118;28;20033;-68
2023/08/22 08:49:36;;;;;;;5.53;4.70;;;;;;;22.97;96.61;101914.50;4991647;28;20446;-69
2023/08/22 08:52:04;;;;;;;7.40;4.90;;;;;;;23.00;96.00;101910.06;4991423;28;20031;-68
2023/08/22 08:54:30;;;;;;;9.07;4.80;;;;;;;23.02;94.84;101903.03;4991367;28;20378;-68
2023/08/22 08:56:56;;;;;;;9.07;4.80;;;;;;;23.08;96.05;101911.81;4991510;28;20041;-68
2023/08/22 08:59:22;;;;;;;5.53;3.95;;;;;;;23.08;93.98;101906.53;4991935;28;20030;-68
2023/08/22 09:01:49;;;;;;;8.65;4.22;;;;;;;23.13;95.59;101907.38;4991173;28;20023;-69
2023/08/22 09:04:15;;;;;;;7.65;4.72;;;;;;;23.20;94.56;101913.50;4990981;28;20106;-68
2023/08/22 09:06:40;;;;;;;7.63;4.90;;;;;;;23.26;94.91;101922.28;4991171;28;20042;-65
2023/08/22 09:09:08;;;;;;;11.02;4.97;;;;;;;23.25;92.65;101924.94;4991474;28;20364;-68
2023/08/22 09:11:34;;;;;;;6.47;4.22;;;;;;;23.20;94.03;101919.69;4990674;28;20109;-68
2023/08/22 09:13:59;;;;;;;6.68;4.32;;;;;;;23.16;93.94;101915.28;4990833;28;20133;-68
2023/08/22 09:16:26;;;;;;;7.35;4.45;;;;;;;23.14;93.58;101917.06;4990665;28;20030;-67
2023/08/22 09:18:51;;;;;;;6.50;4.25;;;;;;;23.13;93.98;101923.25;4991122;28;20026;-69
2023/08/22 09:21:17;;;;;;;8.52;5.28;;;;;;;23.09;92.82;101930.31;4991353;28;20656;-68
2023/08/22 09:23:42;;;;;;;9.85;5.55;;;;;;;23.13;95.37;101917.97;4990688;28;20109;-67
2023/08/22 09:26:11;;;;;;;5.85;4.65;;;;;;;23.21;96.03;101918.78;4990629;28;20053;-69
2023/08/22 09:28:39;;;;;;;13.00;5.50;;;;;;;23.26;94.31;101916.16;4990935;28;20022;-68
2023/08/22 09:31:05;;;;;;;6.95;4.60;;;;;;;23.31;94.23;101924.03;4990457;28;20026;-68
2023/08/22 09:33:51;;;;;;;7.82;5.20;;;;;;;23.33;94.35;101922.28;4990683;28;20507;-68
2023/08/22 09:36:20;;;;;;;9.63;6.45;;;;;;;23.25;93.53;101919.66;4987546;28;20058;-68
2023/08/22 09:38:53;;;;;;;13.07;7.85;;;;;;;23.19;93.55;101920.56;4980316;28;20055;-68
2023/08/22 09:41:28;;;;;;;10.60;7.35;;;;;;;23.26;95.66;101922.28;4990315;28;20014;-68
2023/08/22 09:43:58;;;;;;;10.20;6.03;;;;;;;23.47;95.63;101914.31;4990926;28;20105;-68
2023/08/22 09:46:24;;;;;;;13.27;7.10;;;;;;;23.72;93.46;101924.75;4990080;28;20064;-68
2023/08/22 09:48:50;;;;;;;10.85;7.30;;;;;;;23.95;90.16;101921.94;4990080;28;20030;-69
2023/08/22 09:51:19;;;;;;;9.70;7.70;;;;;;;24.06;89.12;101928.91;4989943;28;20022;-69
2023/08/22 09:53:51;;;;;;;9.15;6.20;;;;;;;24.15;89.71;101923.56;4989519;28;20558;-66
2023/08/22 09:56:19;;;;;;;9.60;6.22;;;;;;;24.18;88.98;101923.56;4990694;28;20022;-68
2023/08/22 09:58:44;;;;;;;12.73;6.88;;;;;;;24.15;87.93;101923.56;4990159;28;20065;-69
2023/08/22 10:01:13;;;;;;;11.48;6.78;;;;;;;24.06;89.23;101935.09;4990272;28;20026;-68
2023/08/22 10:03:39;;;;;;;9.73;6.43;;;;;;;24.03;90.87;101939.53;4990259;28;20090;-68
2023/08/22 10:06:10;;;;;;;12.10;6.63;;;;;;;23.81;89.48;101939.69;4989892;28;20080;-66
2023/08/22 10:08:36;;;;;;;10.05;6.90;;;;;;;23.73;91.00;101932.66;4990206;28;20033;-67
2023/08/22 10:11:02;;;;;;;12.65;6.93;;;;;;;23.77;91.77;101922.06;4990226;28;20462;-69
2023/08/22 10:13:29;;;;;;;10.68;5.93;;;;;;;23.93;92.18;101921.06;4989380;28;20054;-68
2023/08/22 10:15:55;;;;;;;11.55;6.30;;;;;;;24.09;90.89;101927.13;4989748;28;20441;-68
2023/08/22 10:18:24;;;;;;;8.27;5.22;;;;;;;24.20;88.50;101929.72;4989478;28;20032;-68
2023/08/22 10:20:50;;;;;;;7.70;5.60;;;;;;;24.30;88.39;101921.72;4989971;28;20105;-68
2023/08/22 10:23:15;;;;;;;8.18;5.15;;;;;;;24.50;86.49;101918.00;4990089;28;20113;-69
2023/08/22 10:25:49;;;;;;;8.05;4.35;;;;;;;24.73;85.87;101919.53;4990098;28;20378;-69
2023/08/22 10:28:15;;;;;;;4.93;3.30;;;;;;;24.88;79.70;101914.06;4989873;28;20025;-68
2023/08/22 10:31:02;;;;;;;5.63;3.15;;;;;;;24.94;75.85;101927.28;4989564;28;20026;-68
2023/08/22 10:33:28;;;;;;;7.55;2.90;;;;;;;24.98;74.80;101922.81;4989068;28;20417;-69
2023/08/22 10:36:05;;;;;;;6.90;2.85;;;;;;;24.81;75.06;101917.66;4990078;28;20269;-69
2023/08/22 10:38:47;;;;;;;5.32;2.40;;;;;;;24.74;75.86;101918.63;4978087;28;20026;-69
2023/08/22 10:41:12;;;;;;;2.95;2.20;;;;;;;24.80;79.98;101916.81;4988661;28;20018;-69
2023/08/22 10:43:38;;;;;;;6.35;2.60;;;;;;;24.90;78.14;101916.69;4989561;28;20037;-68
2023/08/22 10:46:03;;;;;;;4.93;2.63;;;;;;;25.08;80.18;101915.63;4989542;28;20830;-68
2023/08/22 10:48:29;;;;;;;3.30;2.15;;;;;;;25.28;78.41;101906.53;4989267;28;20513;-69
2023/08/22 10:51:06;;;;;;;6.65;3.03;;;;;;;25.44;73.56;101916.97;4989444;28;20026;-69
2023/08/22 10:53:43;;;;;;;5.90;2.80;;;;;;;25.56;73.30;101907.94;4988843;28;20557;-69
2023/08/22 10:56:23;;;;;;;4.43;2.22;;;;;;;25.63;73.07;101910.50;4989187;28;20060;-69
2023/08/22 10:58:59;;;;;;;5.32;2.70;;;;;;;25.65;73.14;101906.03;4988761;28;20030;-68
2023/08/22 11:01:25;;;;;;;9.40;3.22;;;;;;;25.69;76.72;101903.38;4989341;28;20026;-69
2023/08/22 11:03:51;;;;;;;5.78;3.45;;;;;;;25.76;74.97;101913.84;4988753;28;20157;-69
2023/08/22 11:06:19;;;;;;;5.05;2.60;;;;;;;25.81;73.85;101911.13;4989415;28;20026;-69
2023/08/22 11:08:45;;;;;;;6.65;2.53;;;;;;;25.72;71.41;101911.28;4989076;28;20022;-69
2023/08/22 11:11:16;;;;;;;4.82;2.25;;;;;;;25.67;70.52;101906.03;4989299;28;20038;-69
2023/08/22 11:13:43;;;;;;;3.22;1.70;;;;;;;25.64;72.85;101909.56;4988573;28;20026;-69